Frederic, Michigan
Current Conditions -  °F | °C
As of 4:15 AM on Thursday 23 Oct 2014 (Local Time) from KGOV Reporting Station
Moderate Fog Moderate Fog  
Wind Chill: 26°   Ceiling: 100
Heat Index: 26°   Visibility: 0.5mi
Dew Point: 25°   Wind: 0mph
Humidity: 99%   Direction: NA
Pressure: 30.26"   Gusts: NA
Location:  44.78°N, 84.75°W
Report Text: KGOV 230815Z AUTO 00000KT 1/2SM FZFG OVC001 M04/M04 A3026 RMK AO2 T10361038
Loading
Personal Weather Stations






























Interactive Weather Map
Tropical Storm Tracking
New forecast layout! Learn more

10-Day Weather Forecast

Advertisements
Track Severe Weather on mobile